Forbestown, California
Current Conditions -  °F | °C
As of 3:53 AM on Saturday 25 Oct 2014 (Local Time) from KOVE Reporting Station
Clear Clear  
Wind Chill: 63°   Ceiling: Unl
Heat Index: 63°   Visibility: 10mi
Dew Point: 52°   Wind: 15mph
Humidity: 67%   Direction: 120°ESE
Pressure: 29.89"   Gusts: NA
Location:  39.52°N, 121.27°W
Report Text: KOVE 251053Z AUTO 12013KT 10SM CLR 17/11 A2989 RMK AO2 SLP123 T01720111
Loading
Personal Weather Stations






























Interactive Weather Map
Tropical Storm Tracking
New forecast layout! Learn more

10-Day Weather Forecast

Advertisements
Track Severe Weather on mobile